Vardehorn — LLAE — position and weather

sailwx.info

Track history (hours):
 
Tides and Currents Weather Stations Pressure Air Temp Water Temp Dewpoint Dewpoint Depression Visibility Wind Speed Wind Dir Waves Ship Positions

Vardehorn

Last reported at 2018-Jun-22 23:00 UTC. Time now 2018-Jun-22 22:58 UTC.
Position N 68°06' E 016°21'.

Length 112 m; draft 3.2 m.

Type: Passenger vessel. MMSI: 259650000.

Date/timePositionNaut miles runAvg speedWind from/ knotsBaromVisibWave heightAir tempDewpointWater temp
2018-Jun-22 23:00N 68°06' E 016°21'0 0.0
2018-Jun-22 22:30N 68°06' E 016°21'0 0.0
2018-Jun-22 21:59N 68°06' E 016°21'3 5.2
2018-Jun-22 21:30N 68°06' E 016°15'5 9.2
2018-Jun-22 21:00N 68°03' E 016°05'2 4.9
2018-Jun-22 20:30N 68°05' E 016°10'4 8.9
2018-Jun-22 20:00N 68°06' E 016°21'3 5.0
2018-Jun-22 19:30N 68°06' E 016°15'5 9.3
2018-Jun-22 19:00N 68°03' E 016°05'3 5.4
2018-Jun-22 18:29N 68°05' E 016°11'4 8.5
2018-Jun-22 18:00N 68°06' E 016°21'2 4.6
2018-Jun-22 17:30N 68°06' E 016°15'5 9.7
2018-Jun-22 17:00N 68°03' E 016°05'3 5.5
2018-Jun-22 16:30N 68°05' E 016°11'4 8.2
2018-Jun-22 16:00N 68°06' E 016°21'2 4.9
2018-Jun-22 15:30N 68°06' E 016°15'5 9.4
2018-Jun-22 15:00N 68°03' E 016°05'2 4.2
2018-Jun-22 14:30N 68°04' E 016°09'5 9.2
2018-Jun-22 13:59N 68°06' E 016°21'2 5.2
2018-Jun-22 13:30N 68°06' E 016°15'5 9.0
2018-Jun-22 12:59N 68°03' E 016°05'2 4.8
2018-Jun-22 12:30N 68°04' E 016°10'5 8.5
2018-Jun-22 11:58N 68°06' E 016°21'2 5.2
2018-Jun-22 11:30N 68°06' E 016°15'5 9.2
2018-Jun-22 11:00N 68°03' E 016°05'2 4.1
2018-Jun-22 10:30N 68°04' E 016°09'5 9.5
2018-Jun-22 10:00N 68°06' E 016°21'2 4.6
2018-Jun-22 09:30N 68°06' E 016°15'5 9.6
2018-Jun-22 08:59N 68°03' E 016°05'2 4.3
2018-Jun-22 08:30N 68°04' E 016°09'5 9.4
2018-Jun-22 08:00N 68°06' E 016°21'2 4.7
2018-Jun-22 07:30N 68°06' E 016°15'5 9.2
2018-Jun-22 06:59N 68°03' E 016°05'2 4.4
2018-Jun-22 06:30N 68°04' E 016°09'5 9.4
2018-Jun-22 06:00N 68°06' E 016°21'1 1.7
2018-Jun-22 05:30N 68°06' E 016°19'5 9.7
2018-Jun-22 05:00N 68°04' E 016°07'1 1.9
2018-Jun-22 04:30N 68°04' E 016°09'5 9.5
2018-Jun-22 04:00N 68°06' E 016°21'0 0.0
2018-Jun-22 03:30N 68°06' E 016°21'0 0.0
2018-Jun-22 02:59N 68°06' E 016°21'0 0.0
2018-Jun-22 02:30N 68°06' E 016°21'0 0.0
2018-Jun-22 01:59N 68°06' E 016°21'0 0.0
2018-Jun-22 01:30N 68°06' E 016°21'0 0.0
2018-Jun-22 01:00N 68°06' E 016°21'0 0.0
2018-Jun-22 00:30N 68°06' E 016°21'0 0.0
2018-Jun-22 00:00N 68°06' E 016°21'0 0.0
2018-Jun-21 23:30N 68°06' E 016°21'0 0.0
2018-Jun-21 23:00N 68°06' E 016°21'0 0.0
2018-Jun-21 22:30N 68°06' E 016°21'0 0.0
2018-Jun-21 22:00N 68°06' E 016°21'2 4.5
2018-Jun-21 21:29N 68°06' E 016°15'510.0
2018-Jun-21 21:00N 68°03' E 016°05'2 4.9
2018-Jun-21 20:30N 68°05' E 016°10'4 8.8
2018-Jun-21 20:00N 68°06' E 016°21'2 4.6
2018-Jun-21 19:30N 68°06' E 016°15'5 9.8
2018-Jun-21 19:00N 68°03' E 016°05'3 5.7
2018-Jun-21 18:29N 68°05' E 016°11'4 8.4
2018-Jun-21 18:00N 68°06' E 016°21'3 5.2
2018-Jun-21 17:30N 68°06' E 016°14'5 9.2
2018-Jun-21 17:00N 68°03' E 016°05'3 4.8
2018-Jun-21 16:28N 68°05' E 016°10'4 9.2
2018-Jun-21 16:00N 68°06' E 016°21'2 3.9
2018-Jun-21 15:30N 68°06' E 016°16'510.2
2018-Jun-21 14:59N 68°03' E 016°05'2 4.6
2018-Jun-21 14:30N 68°04' E 016°09'5 9.4
2018-Jun-21 14:00N 68°06' E 016°21'2 3.7
2018-Jun-21 13:30N 68°06' E 016°16'510.7
2018-Jun-21 13:00N 68°03' E 016°05'2 4.5
2018-Jun-21 12:30N 68°04' E 016°10'5 9.2
2018-Jun-21 12:00N 68°06' E 016°21'3 4.9
2018-Jun-21 11:29N 68°06' E 016°15'5 9.5
2018-Jun-21 11:00N 68°03' E 016°05'2 4.0
2018-Jun-21 10:29N 68°04' E 016°09'5 9.8
2018-Jun-21 10:00N 68°06' E 016°21'2 4.2
2018-Jun-21 09:29N 68°06' E 016°16'510.4
2018-Jun-21 09:00N 68°03' E 016°05'2 4.1
2018-Jun-21 08:30N 68°04' E 016°09'5 9.6
2018-Jun-21 08:00N 68°06' E 016°21'2 4.4
2018-Jun-21 07:30N 68°06' E 016°15'5 9.9
2018-Jun-21 07:00N 68°03' E 016°05'3 5.6
2018-Jun-21 06:30N 68°05' E 016°11'4 8.3
2018-Jun-21 06:00N 68°06' E 016°21'1 2.3
2018-Jun-21 05:30N 68°06' E 016°18'5 9.9
2018-Jun-21 05:00N 68°03' E 016°06'2 3.4
2018-Jun-21 04:30N 68°04' E 016°10'4 8.7
2018-Jun-21 04:00N 68°06' E 016°21'0 0.0
2018-Jun-21 03:30N 68°06' E 016°21'0 0.0
2018-Jun-21 03:00N 68°06' E 016°21'0 0.0
2018-Jun-21 02:30N 68°06' E 016°21'0 0.0
2018-Jun-21 02:00N 68°06' E 016°21'0 0.0
2018-Jun-21 01:30N 68°06' E 016°21'0 0.0
2018-Jun-21 01:00N 68°06' E 016°21'0 0.0
2018-Jun-21 00:30N 68°06' E 016°21'0 0.0
2018-Jun-21 00:00N 68°06' E 016°21'0 0.0
2018-Jun-20 23:30N 68°06' E 016°21'0 0.0
2018-Jun-20 23:00N 68°06' E 016°21'0 0.0
2018-Jun-20 22:30N 68°06' E 016°21'0 0.2
2018-Jun-20 21:59N 68°06' E 016°21'3 5.2
2018-Jun-20 21:30N 68°06' E 016°14'5 9.3
2018-Jun-20 21:00N 68°03' E 016°05'3 5.3
2018-Jun-20 20:30N 68°05' E 016°10'4 8.4
2018-Jun-20 20:00N 68°06' E 016°21'2 4.6
2018-Jun-20 19:30N 68°06' E 016°15'5 9.4
2018-Jun-20 18:59N 68°03' E 016°05'2 4.7
2018-Jun-20 18:30N 68°04' E 016°09'5 9.1
2018-Jun-20 18:00N 68°06' E 016°21'2 5.0
2018-Jun-20 17:29N 68°06' E 016°15'5 9.5
2018-Jun-20 17:00N 68°03' E 016°05'2 4.3
2018-Jun-20 16:30N 68°04' E 016°09'5 9.5
2018-Jun-20 16:00N 68°06' E 016°21'3 4.8
2018-Jun-20 15:29N 68°06' E 016°15'5 9.6
2018-Jun-20 15:00N 68°03' E 016°05'2 4.5
2018-Jun-20 14:29N 68°04' E 016°10'5 9.4
2018-Jun-20 14:00N 68°06' E 016°21'2 3.9
2018-Jun-20 13:30N 68°06' E 016°16'510.1
2018-Jun-20 13:00N 68°03' E 016°05'2 4.2
2018-Jun-20 12:30N 68°04' E 016°09'5 9.6
2018-Jun-20 12:00N 68°06' E 016°21'2 4.6
2018-Jun-20 11:29N 68°06' E 016°15'5 9.9
2018-Jun-20 11:00N 68°03' E 016°05'2 3.6
2018-Jun-20 10:30N 68°04' E 016°08'510.0
2018-Jun-20 09:59N 68°06' E 016°21'2 4.4
2018-Jun-20 09:30N 68°06' E 016°16'510.1
2018-Jun-20 09:00N 68°03' E 016°05'2 4.6
2018-Jun-20 08:30N 68°04' E 016°10'5 9.0
2018-Jun-20 08:00N 68°06' E 016°21'2 4.9
2018-Jun-20 07:30N 68°06' E 016°15'5 9.4
2018-Jun-20 07:00N 68°03' E 016°05'2 4.8
2018-Jun-20 06:30N 68°04' E 016°10'4 8.9
2018-Jun-20 06:00N 68°06' E 016°21'1 2.4
2018-Jun-20 05:29N 68°06' E 016°18'510.6
2018-Jun-20 04:59N 68°03' E 016°06'2 3.7
2018-Jun-20 04:30N 68°04' E 016°10'4 8.8
2018-Jun-20 04:00N 68°06' E 016°21'0 0.0
2018-Jun-20 03:30N 68°06' E 016°21'0 0.0
2018-Jun-20 03:00N 68°06' E 016°21'0 0.0
2018-Jun-20 02:30N 68°06' E 016°21'0 0.0
2018-Jun-20 02:00N 68°06' E 016°21'0 0.0
2018-Jun-20 01:30N 68°06' E 016°21'0 0.0
2018-Jun-20 01:00N 68°06' E 016°21'0 0.0
2018-Jun-20 00:30N 68°06' E 016°21'0 0.0
2018-Jun-20 00:00N 68°06' E 016°21'0 0.0
2018-Jun-19 23:30N 68°06' E 016°21'0 0.0
2018-Jun-19 23:00N 68°06' E 016°21'0 0.0
2018-Jun-19 22:29N 68°06' E 016°21'0 0.0
2018-Jun-19 22:00N 68°06' E 016°21'3 5.3
2018-Jun-19 21:30N 68°06' E 016°14'4 8.9
2018-Jun-19 21:00N 68°03' E 016°05'3 5.3
2018-Jun-19 20:30N 68°05' E 016°10'4 8.5
2018-Jun-19 20:00N 68°06' E 016°21'4 7.1
2018-Jun-19 19:29N 68°05' E 016°12'3 6.8
2018-Jun-19 19:00N 68°03' E 016°05'3 5.3
2018-Jun-19 18:30N 68°05' E 016°11'4 8.4
2018-Jun-19 18:00N 68°06' E 016°21'3 5.5
2018-Jun-19 17:30N 68°06' E 016°14'4 8.9
2018-Jun-19 17:00N 68°03' E 016°05'2 4.8
2018-Jun-19 16:30N 68°04' E 016°10'4 9.0
2018-Jun-19 16:00N 68°06' E 016°21'3 5.3
2018-Jun-19 15:30N 68°06' E 016°14'4 8.9
2018-Jun-19 15:00N 68°03' E 016°05'3 6.6
2018-Jun-19 14:30N 68°05' E 016°12'4 6.8
2018-Jun-19 13:58N 68°06' E 016°21'2 5.2
2018-Jun-19 13:30N 68°06' E 016°15'5 9.3
2018-Jun-19 13:00N 68°03' E 016°05'3 5.3
2018-Jun-19 12:30N 68°05' E 016°10'4 8.5
2018-Jun-19 12:00N 68°06' E 016°21'3 5.2
2018-Jun-19 11:30N 68°06' E 016°14'5 9.2
2018-Jun-19 11:00N 68°03' E 016°05'3 5.1
2018-Jun-19 10:30N 68°04' E 016°10'4 8.8
2018-Jun-19 10:00N 68°06' E 016°21'3 5.2
2018-Jun-19 09:30N 68°06' E 016°14'4 9.1
2018-Jun-19 09:00N 68°03' E 016°05'3 5.1
2018-Jun-19 08:30N 68°04' E 016°10'4 8.7
2018-Jun-19 08:00N 68°06' E 016°21'3 5.2
2018-Jun-19 07:30N 68°06' E 016°14'5 8.9
2018-Jun-19 07:00N 68°03' E 016°05'3 5.2
2018-Jun-19 06:30N 68°04' E 016°10'4 8.6
2018-Jun-19 06:00N 68°06' E 016°21'2 2.9
2018-Jun-19 05:29N 68°06' E 016°17'510.0
2018-Jun-19 05:00N 68°03' E 016°06'2 3.8
2018-Jun-19 04:30N 68°04' E 016°10'4 8.6
2018-Jun-19 04:00N 68°06' E 016°21'0 0.0
2018-Jun-19 03:30N 68°06' E 016°21'0 0.0
2018-Jun-19 03:00N 68°06' E 016°21'0 0.0
2018-Jun-19 02:29N 68°06' E 016°21'0 0.0
2018-Jun-19 02:00N 68°06' E 016°21'0 0.0
2018-Jun-19 01:29N 68°06' E 016°21'0 0.0
2018-Jun-19 01:00N 68°06' E 016°21'0 0.0
2018-Jun-19 00:30N 68°06' E 016°21'0 0.0
2018-Jun-19 00:00N 68°06' E 016°21'0 0.0
2018-Jun-18 23:29N 68°06' E 016°21'0 0.0
2018-Jun-18 23:00N 68°06' E 016°21'0 0.0
2018-Jun-18 22:30N 68°06' E 016°21'0 0.0
2018-Jun-18 21:58N 68°06' E 016°21'3 5.5
2018-Jun-18 21:30N 68°06' E 016°14'4 9.0
2018-Jun-18 21:00N 68°03' E 016°05'3 5.1
2018-Jun-18 20:30N 68°04' E 016°10'4 8.8
2018-Jun-18 20:00N 68°06' E 016°21'3 5.0
2018-Jun-18 19:30N 68°06' E 016°15'5 9.1
2018-Jun-18 19:00N 68°03' E 016°05'3 6.4
2018-Jun-18 18:29N 68°05' E 016°12'4 7.5
2018-Jun-18 18:00N 68°06' E 016°21'3 6.3
2018-Jun-18 17:29N 68°05' E 016°13'4 7.9
2018-Jun-18 17:00N 68°03' E 016°05'3 5.5
2018-Jun-18 16:30N 68°05' E 016°11'4 8.0
2018-Jun-18 15:59N 68°06' E 016°21'3 6.5
2018-Jun-18 15:30N 68°05' E 016°13'4 8.1
2018-Jun-18 15:00N 68°03' E 016°05'3 5.0
2018-Jun-18 14:29N 68°05' E 016°10'4 8.7
2018-Jun-18 14:00N 68°06' E 016°21'3 5.3
2018-Jun-18 13:30N 68°06' E 016°14'5 8.7
2018-Jun-18 12:59N 68°03' E 016°05'3 6.1
2018-Jun-18 12:28N 68°05' E 016°11'4 8.0
2018-Jun-18 11:59N 68°06' E 016°21'3 5.4
2018-Jun-18 11:30N 68°06' E 016°14'4 8.8
2018-Jun-18 11:00N 68°03' E 016°05'3 5.9
2018-Jun-18 10:30N 68°05' E 016°11'4 8.0
2018-Jun-18 10:00N 68°06' E 016°21'3 5.9
2018-Jun-18 09:30N 68°06' E 016°14'4 7.9
2018-Jun-18 08:59N 68°03' E 016°05'3 5.7
2018-Jun-18 08:30N 68°05' E 016°10'4 8.6
2018-Jun-18 08:00N 68°06' E 016°21'3 5.0
2018-Jun-18 07:30N 68°06' E 016°15'5 9.3
2018-Jun-18 07:00N 68°03' E 016°05'2 4.9
2018-Jun-18 06:30N 68°05' E 016°10'4 8.8
2018-Jun-18 06:00N 68°06' E 016°21'1 2.5
2018-Jun-18 05:30N 68°06' E 016°18'5 9.3
2018-Jun-18 05:00N 68°04' E 016°07'1 2.7
2018-Jun-18 04:30N 68°04' E 016°10'4 8.9
2018-Jun-18 04:00N 68°06' E 016°21'0 0.0
2018-Jun-18 03:30N 68°06' E 016°21'0 0.0
2018-Jun-18 03:00N 68°06' E 016°21'0 0.0
2018-Jun-18 02:30N 68°06' E 016°21'0 0.0
2018-Jun-18 02:00N 68°06' E 016°21'0 0.0
2018-Jun-18 01:30N 68°06' E 016°21'0 0.0
2018-Jun-18 01:00N 68°06' E 016°21'0 0.0
2018-Jun-18 00:30N 68°06' E 016°21'0 0.0
2018-Jun-18 00:00N 68°06' E 016°21'0 0.0
2018-Jun-17 23:30N 68°06' E 016°21'0 0.0
2018-Jun-17 23:00N 68°06' E 016°21'0 0.0
2018-Jun-17 22:30N 68°06' E 016°21'0 0.0
2018-Jun-17 22:00N 68°06' E 016°21'2 4.9
2018-Jun-17 21:30N 68°06' E 016°15'5 8.9
2018-Jun-17 20:59N 68°03' E 016°05'3 5.3
2018-Jun-17 20:30N 68°04' E 016°10'4 8.5
2018-Jun-17 20:00N 68°06' E 016°21'3 5.7
2018-Jun-17 19:30N 68°05' E 016°14'4 8.4
2018-Jun-17 19:00N 68°03' E 016°05'3 6.2
2018-Jun-17 18:30N 68°05' E 016°11'4 7.8
2018-Jun-17 18:00N 68°06' E 016°21'3 6.7
2018-Jun-17 17:30N 68°05' E 016°12'4 7.2
2018-Jun-17 17:00N 68°03' E 016°05'3 5.3
2018-Jun-17 16:30N 68°05' E 016°10'4 8.4
2018-Jun-17 16:00N 68°06' E 016°21'3 5.4
2018-Jun-17 15:30N 68°06' E 016°14'4 8.8
2018-Jun-17 15:00N 68°03' E 016°05'3 6.1
2018-Jun-17 14:30N 68°05' E 016°11'4 7.8
2018-Jun-17 14:00N 68°06' E 016°21'3 5.5
2018-Jun-17 13:30N 68°06' E 016°14'4 8.7
2018-Jun-17 13:00N 68°03' E 016°05'3 5.2
2018-Jun-17 12:30N 68°05' E 016°10'4 8.6
2018-Jun-17 12:00N 68°06' E 016°21'3 5.8
2018-Jun-17 11:30N 68°06' E 016°14'4 8.2
2018-Jun-17 11:00N 68°03' E 016°05'2 4.9
2018-Jun-17 10:30N 68°04' E 016°10'4 8.6
2018-Jun-17 09:59N 68°06' E 016°21'3 5.2
2018-Jun-17 09:30N 68°06' E 016°15'5 9.3
2018-Jun-17 09:00N 68°03' E 016°05'2 5.0
2018-Jun-17 08:30N 68°04' E 016°10'4 8.7
2018-Jun-17 08:00N 68°06' E 016°21'3 5.4
2018-Jun-17 07:30N 68°06' E 016°14'4 8.5
2018-Jun-17 06:59N 68°03' E 016°05'3 5.2
2018-Jun-17 06:30N 68°05' E 016°10'4 8.8
2018-Jun-17 06:00N 68°06' E 016°21'1 2.7
2018-Jun-17 05:30N 68°06' E 016°18'5 9.3
2018-Jun-17 04:58N 68°03' E 016°06'2 4.0
2018-Jun-17 04:30N 68°05' E 016°10'4 8.5
2018-Jun-17 04:00N 68°06' E 016°21'0 0.0
2018-Jun-17 03:30N 68°06' E 016°21'0 0.0
2018-Jun-17 03:00N 68°06' E 016°21'0 0.0
2018-Jun-17 02:30N 68°06' E 016°21'0 0.0
2018-Jun-17 02:00N 68°06' E 016°21'0 0.0
2018-Jun-17 01:30N 68°06' E 016°21'0 0.0
2018-Jun-17 01:00N 68°06' E 016°21'0 0.0
2018-Jun-17 00:30N 68°06' E 016°21'0 0.0
2018-Jun-17 00:00N 68°06' E 016°21'0 0.0
2018-Jun-16 23:29N 68°06' E 016°21'0 0.0
2018-Jun-16 23:00N 68°06' E 016°21'0 0.0
2018-Jun-16 22:30N 68°06' E 016°21'0 0.0
2018-Jun-16 21:59N 68°06' E 016°21'2 4.0
2018-Jun-16 21:30N 68°06' E 016°16'510.5
2018-Jun-16 21:00N 68°03' E 016°05'2 4.9
2018-Jun-16 20:30N 68°04' E 016°10'4 8.5
2018-Jun-16 19:59N 68°06' E 016°21'3 5.3
2018-Jun-16 19:29N 68°06' E 016°14'4 9.0
2018-Jun-16 19:00N 68°03' E 016°05'3 5.7
2018-Jun-16 18:30N 68°05' E 016°11'4 8.2
2018-Jun-16 18:00N 68°06' E 016°21'2 4.8
2018-Jun-16 17:30N 68°06' E 016°15'5 9.5
2018-Jun-16 17:00N 68°03' E 016°05'2 4.2
2018-Jun-16 16:30N 68°04' E 016°09'5 9.5
2018-Jun-16 16:00N 68°06' E 016°21'2 4.8
2018-Jun-16 15:29N 68°06' E 016°15'5 9.7
2018-Jun-16 15:00N 68°03' E 016°05'3 5.1
2018-Jun-16 14:29N 68°05' E 016°10'4 8.7
2018-Jun-16 14:00N 68°06' E 016°21'2 4.7
2018-Jun-16 13:30N 68°06' E 016°15'5 9.4
2018-Jun-16 12:59N 68°03' E 016°05'3 5.6
2018-Jun-16 12:29N 68°05' E 016°10'4 8.5
2018-Jun-16 12:00N 68°06' E 016°21'3 5.3
2018-Jun-16 11:30N 68°06' E 016°14'5 9.2
2018-Jun-16 11:00N 68°03' E 016°05'3 5.3
2018-Jun-16 10:30N 68°05' E 016°10'4 8.4
2018-Jun-16 10:00N 68°06' E 016°21'3 5.5
2018-Jun-16 09:30N 68°06' E 016°14'4 8.8
2018-Jun-16 09:00N 68°03' E 016°05'3 5.4
2018-Jun-16 08:30N 68°05' E 016°10'4 8.6
2018-Jun-16 08:00N 68°06' E 016°21'2 4.9
2018-Jun-16 07:30N 68°06' E 016°15'5 9.4
2018-Jun-16 07:00N 68°03' E 016°05'3 5.2
2018-Jun-16 06:30N 68°05' E 016°10'4 8.7
2018-Jun-16 06:00N 68°06' E 016°21'2 3.9
2018-Jun-16 05:30N 68°06' E 016°16'5 9.7
2018-Jun-16 05:00N 68°03' E 016°06'3 4.9
2018-Jun-16 04:29N 68°05' E 016°11'4 8.2
2018-Jun-16 04:00N 68°06' E 016°21'0 0.0
2018-Jun-16 03:29N 68°06' E 016°21'0 0.0
2018-Jun-16 03:00N 68°06' E 016°21'0 0.0
2018-Jun-16 02:29N 68°06' E 016°21'0 0.0
2018-Jun-16 02:00N 68°06' E 016°21'0 0.0
2018-Jun-16 01:30N 68°06' E 016°21'0 0.0
2018-Jun-16 00:59N 68°06' E 016°21'0 0.0
2018-Jun-16 00:30N 68°06' E 016°21'0 0.0
2018-Jun-16 00:00N 68°06' E 016°21'0 0.0
2018-Jun-15 23:30N 68°06' E 016°21'0 0.0
2018-Jun-15 23:00N 68°06' E 016°21'0 0.0
2018-Jun-15 22:30N 68°06' E 016°21'0 0.0
2018-Jun-15 21:59N 68°06' E 016°21'2 4.8
2018-Jun-15 21:28N 68°06' E 016°15'510.0
2018-Jun-15 21:00N 68°03' E 016°05'3 5.1
2018-Jun-15 20:30N 68°05' E 016°10'4 8.7
2018-Jun-15 20:00N 68°06' E 016°21'3 5.8
2018-Jun-15 19:30N 68°06' E 016°14'4 8.5
2018-Jun-15 18:59N 68°03' E 016°05'3 5.9
2018-Jun-15 18:29N 68°05' E 016°11'4 8.1
2018-Jun-15 18:00N 68°06' E 016°21'3 5.4
2018-Jun-15 17:30N 68°06' E 016°14'4 8.8
2018-Jun-15 17:00N 68°03' E 016°05'3 5.3
2018-Jun-15 16:29N 68°05' E 016°10'4 8.5
2018-Jun-15 15:59N 68°06' E 016°21'3 5.4
2018-Jun-15 15:30N 68°06' E 016°14'5 9.2
2018-Jun-15 15:00N 68°03' E 016°05'3 5.3
2018-Jun-15 14:30N 68°05' E 016°11'4 8.3
2018-Jun-15 14:00N 68°06' E 016°21'3 5.7
2018-Jun-15 13:30N 68°06' E 016°14'4 8.6
2018-Jun-15 13:00N 68°03' E 016°05'3 6.4
2018-Jun-15 12:30N 68°05' E 016°12'4 7.3
2018-Jun-15 12:00N 68°06' E 016°21'3 5.9
2018-Jun-15 11:30N 68°06' E 016°14'4 8.4
2018-Jun-15 11:00N 68°03' E 016°05'3 6.1
2018-Jun-15 10:29N 68°05' E 016°11'4 7.4
2018-Jun-15 09:59N 68°06' E 016°21'3 5.4
2018-Jun-15 09:30N 68°06' E 016°14'5 9.1
2018-Jun-15 09:00N 68°03' E 016°05'3 5.0
2018-Jun-15 08:29N 68°05' E 016°10'4 9.0
2018-Jun-15 08:00N 68°06' E 016°21'3 5.1
2018-Jun-15 07:30N 68°06' E 016°14'5 9.3
2018-Jun-15 07:00N 68°03' E 016°05'3 5.2
2018-Jun-15 06:30N 68°05' E 016°10'4 8.4
2018-Jun-15 06:00N 68°06' E 016°21'2 3.3
2018-Jun-15 05:29N 68°06' E 016°17'4 9.1
2018-Jun-15 05:00N 68°04' E 016°07'1 2.6
2018-Jun-15 04:30N 68°04' E 016°10'5 9.1
2018-Jun-15 04:00N 68°06' E 016°21'0 0.0
2018-Jun-15 03:29N 68°06' E 016°21'0 0.0
2018-Jun-15 03:00N 68°06' E 016°21'0 0.0
2018-Jun-15 02:30N 68°06' E 016°21'0 0.0
2018-Jun-15 02:00N 68°06' E 016°21'0 0.0
2018-Jun-15 01:29N 68°06' E 016°21'0 0.0
2018-Jun-15 01:00N 68°06' E 016°21'0 0.0
2018-Jun-15 00:30N 68°06' E 016°21'0 0.0
2018-Jun-14 23:59N 68°06' E 016°21'0 0.0
2018-Jun-14 23:30N 68°06' E 016°21'0 0.0
2018-Jun-14 22:59N 68°06' E 016°21'0 0.0
2018-Jun-14 22:29N 68°06' E 016°21'0 0.0
2018-Jun-14 22:00N 68°06' E 016°21'3 5.1
2018-Jun-14 21:30N 68°06' E 016°15'5 9.3
2018-Jun-14 21:00N 68°03' E 016°05'3 6.1
2018-Jun-14 20:29N 68°05' E 016°11'4 7.9
2018-Jun-14 20:00N 68°06' E 016°21'3 5.4
2018-Jun-14 19:30N 68°06' E 016°14'4 8.7
2018-Jun-14 19:00N 68°03' E 016°05'3 5.7
2018-Jun-14 18:30N 68°05' E 016°10'4 8.4
2018-Jun-14 18:00N 68°06' E 016°21'2 4.9
2018-Jun-14 17:30N 68°06' E 016°15'5 9.5
2018-Jun-14 17:00N 68°03' E 016°05'2 4.1
2018-Jun-14 16:30N 68°04' E 016°09'5 9.7
2018-Jun-14 16:00N 68°06' E 016°21'2 4.5
2018-Jun-14 15:30N 68°06' E 016°15'5 9.6
2018-Jun-14 14:59N 68°03' E 016°05'2 4.0
2018-Jun-14 14:30N 68°04' E 016°09'5 9.9
2018-Jun-14 14:00N 68°06' E 016°21'2 3.6
2018-Jun-14 13:30N 68°06' E 016°17'510.8
2018-Jun-14 13:00N 68°03' E 016°05'2 4.2
2018-Jun-14 12:29N 68°04' E 016°09'5 9.6
2018-Jun-14 12:00N 68°06' E 016°21'2 3.7
2018-Jun-14 11:30N 68°06' E 016°16'510.6
2018-Jun-14 11:00N 68°03' E 016°05'3 5.6
2018-Jun-14 10:30N 68°05' E 016°11'4 8.3
2018-Jun-14 10:00N 68°06' E 016°21'3 5.2
2018-Jun-14 09:29N 68°06' E 016°14'4 9.2
2018-Jun-14 09:00N 68°03' E 016°05'3 5.2
2018-Jun-14 08:29N 68°05' E 016°10'4 8.8
2018-Jun-14 08:00N 68°06' E 016°21'3 5.4
2018-Jun-14 07:30N 68°06' E 016°14'4 8.6
2018-Jun-14 07:00N 68°03' E 016°05'3 5.8
2018-Jun-14 06:30N 68°05' E 016°11'4 8.2
2018-Jun-14 06:00N 68°06' E 016°21'0 0.0
2018-Jun-14 05:29N 68°06' E 016°21'0 0.0
2018-Jun-14 05:00N 68°06' E 016°21'0 0.0
2018-Jun-14 04:29N 68°06' E 016°21'0 0.0
2018-Jun-14 04:00N 68°06' E 016°21'0 0.0
2018-Jun-14 03:29N 68°06' E 016°21'0 0.0
2018-Jun-14 02:59N 68°06' E 016°21'0 0.0
2018-Jun-14 02:30N 68°06' E 016°21'0 0.0
2018-Jun-14 01:59N 68°06' E 016°21'0 0.0
2018-Jun-14 01:30N 68°06' E 016°21'0 0.0
2018-Jun-14 01:00N 68°06' E 016°21'0 0.0
2018-Jun-14 00:30N 68°06' E 016°21'0 0.0
2018-Jun-14 00:00N 68°06' E 016°21'0 0.0
2018-Jun-13 23:30N 68°06' E 016°21'0 0.0
2018-Jun-13 23:00N 68°06' E 016°21'0 0.4
2018-Jun-13 22:30N 68°05' E 016°21'0 0.4
2018-Jun-13 21:58N 68°06' E 016°21'3 5.6
2018-Jun-13 21:30N 68°06' E 016°14'4 8.8
2018-Jun-13 21:00N 68°03' E 016°05'3 5.1
2018-Jun-13 20:30N 68°04' E 016°10'4 8.8
2018-Jun-13 20:00N 68°06' E 016°21'3 6.0
2018-Jun-13 19:30N 68°05' E 016°13'4 8.1
2018-Jun-13 19:00N 68°03' E 016°05'3 5.0
2018-Jun-13 18:30N 68°04' E 016°10'4 8.5
2018-Jun-13 17:59N 68°06' E 016°21'3 5.9
2018-Jun-13 17:30N 68°05' E 016°14'4 8.2
2018-Jun-13 16:59N 68°03' E 016°05'3 5.9
2018-Jun-13 16:30N 68°05' E 016°11'4 8.1
2018-Jun-13 16:00N 68°06' E 016°21'3 5.6
2018-Jun-13 15:29N 68°05' E 016°14'4 8.6
2018-Jun-13 15:00N 68°03' E 016°05'3 5.5
2018-Jun-13 14:30N 68°05' E 016°11'4 7.9
2018-Jun-13 13:59N 68°06' E 016°21'3 5.4
2018-Jun-13 13:30N 68°06' E 016°15'5 9.3
2018-Jun-13 13:00N 68°03' E 016°05'3 5.8
2018-Jun-13 12:30N 68°05' E 016°11'4 7.9
2018-Jun-13 12:00N 68°06' E 016°21'3 5.3
2018-Jun-13 11:30N 68°06' E 016°14'4 8.8
2018-Jun-13 11:00N 68°03' E 016°05'3 6.1
2018-Jun-13 10:30N 68°05' E 016°11'4 7.6
2018-Jun-13 09:59N 68°06' E 016°21'3 5.4
2018-Jun-13 09:29N 68°06' E 016°14'4 9.0
2018-Jun-13 09:00N 68°03' E 016°05'3 5.4
2018-Jun-13 08:30N 68°05' E 016°11'4 8.4
2018-Jun-13 08:00N 68°06' E 016°21'3 5.3
2018-Jun-13 07:30N 68°06' E 016°14'5 9.2
2018-Jun-13 07:00N 68°03' E 016°05'3 4.9
2018-Jun-13 06:29N 68°04' E 016°10'4 8.9
2018-Jun-13 06:00N 68°06' E 016°21'1 2.4
2018-Jun-13 05:30N 68°06' E 016°18'5 9.2
2018-Jun-13 05:00N 68°04' E 016°07'1 2.9
2018-Jun-13 04:30N 68°04' E 016°10'4 8.6
2018-Jun-13 04:00N 68°06' E 016°21'0 0.0
2018-Jun-13 03:30N 68°06' E 016°21'0 0.0
2018-Jun-13 03:00N 68°06' E 016°21'0 0.0
2018-Jun-13 02:30N 68°06' E 016°21'0 0.0
2018-Jun-13 01:59N 68°06' E 016°21'0 0.0
2018-Jun-13 01:29N 68°06' E 016°21'0 0.0
2018-Jun-13 01:00N 68°06' E 016°21'0 0.0
2018-Jun-13 00:29N 68°06' E 016°21'0 0.0
2018-Jun-13 00:00N 68°06' E 016°21'0 0.0
2018-Jun-12 23:30N 68°06' E 016°21'0 0.0
2018-Jun-12 23:00N 68°06' E 016°21'  
Track history (hours):
 
Tides and Currents Weather Stations Pressure Air Temp Water Temp Dewpoint Dewpoint Depression Visibility Wind Speed Wind Dir Waves Ship Positions

Vardehorn

Last reported at 2018-Jun-22 23:00 UTC. Time now 2018-Jun-22 22:58 UTC.
Position N 68°06' E 016°21'.

Length 112 m; draft 3.2 m.

Type: Passenger vessel. MMSI: 259650000.

Date/timePositionNaut miles runAvg speedWind from/ knotsBaromVisibWave heightAir tempDewpointWater temp
2018-Jun-22 23:00N 68°06' E 016°21'0 0.0
2018-Jun-22 22:30N 68°06' E 016°21'0 0.0
2018-Jun-22 21:59N 68°06' E 016°21'3 5.2
2018-Jun-22 21:30N 68°06' E 016°15'5 9.2
2018-Jun-22 21:00N 68°03' E 016°05'2 4.9
2018-Jun-22 20:30N 68°05' E 016°10'4 8.9
2018-Jun-22 20:00N 68°06' E 016°21'3 5.0
2018-Jun-22 19:30N 68°06' E 016°15'5 9.3
2018-Jun-22 19:00N 68°03' E 016°05'3 5.4
2018-Jun-22 18:29N 68°05' E 016°11'4 8.5
2018-Jun-22 18:00N 68°06' E 016°21'2 4.6
2018-Jun-22 17:30N 68°06' E 016°15'5 9.7
2018-Jun-22 17:00N 68°03' E 016°05'3 5.5
2018-Jun-22 16:30N 68°05' E 016°11'4 8.2
2018-Jun-22 16:00N 68°06' E 016°21'2 4.9
2018-Jun-22 15:30N 68°06' E 016°15'5 9.4
2018-Jun-22 15:00N 68°03' E 016°05'2 4.2
2018-Jun-22 14:30N 68°04' E 016°09'5 9.2
2018-Jun-22 13:59N 68°06' E 016°21'2 5.2
2018-Jun-22 13:30N 68°06' E 016°15'5 9.0
2018-Jun-22 12:59N 68°03' E 016°05'2 4.8
2018-Jun-22 12:30N 68°04' E 016°10'5 8.5
2018-Jun-22 11:58N 68°06' E 016°21'2 5.2
2018-Jun-22 11:30N 68°06' E 016°15'5 9.2
2018-Jun-22 11:00N 68°03' E 016°05'2 4.1
2018-Jun-22 10:30N 68°04' E 016°09'5 9.5
2018-Jun-22 10:00N 68°06' E 016°21'2 4.6
2018-Jun-22 09:30N 68°06' E 016°15'5 9.6
2018-Jun-22 08:59N 68°03' E 016°05'2 4.3
2018-Jun-22 08:30N 68°04' E 016°09'5 9.4
2018-Jun-22 08:00N 68°06' E 016°21'2 4.7
2018-Jun-22 07:30N 68°06' E 016°15'5 9.2
2018-Jun-22 06:59N 68°03' E 016°05'2 4.4
2018-Jun-22 06:30N 68°04' E 016°09'5 9.4
2018-Jun-22 06:00N 68°06' E 016°21'1 1.7
2018-Jun-22 05:30N 68°06' E 016°19'5 9.7
2018-Jun-22 05:00N 68°04' E 016°07'1 1.9
2018-Jun-22 04:30N 68°04' E 016°09'5 9.5
2018-Jun-22 04:00N 68°06' E 016°21'0 0.0
2018-Jun-22 03:30N 68°06' E 016°21'0 0.0
2018-Jun-22 02:59N 68°06' E 016°21'0 0.0
2018-Jun-22 02:30N 68°06' E 016°21'0 0.0
2018-Jun-22 01:59N 68°06' E 016°21'0 0.0
2018-Jun-22 01:30N 68°06' E 016°21'0 0.0
2018-Jun-22 01:00N 68°06' E 016°21'0 0.0
2018-Jun-22 00:30N 68°06' E 016°21'0 0.0
2018-Jun-22 00:00N 68°06' E 016°21'0 0.0
2018-Jun-21 23:30N 68°06' E 016°21'0 0.0
2018-Jun-21 23:00N 68°06' E 016°21'0 0.0
2018-Jun-21 22:30N 68°06' E 016°21'0 0.0
2018-Jun-21 22:00N 68°06' E 016°21'2 4.5
2018-Jun-21 21:29N 68°06' E 016°15'510.0
2018-Jun-21 21:00N 68°03' E 016°05'2 4.9
2018-Jun-21 20:30N 68°05' E 016°10'4 8.8
2018-Jun-21 20:00N 68°06' E 016°21'2 4.6
2018-Jun-21 19:30N 68°06' E 016°15'5 9.8
2018-Jun-21 19:00N 68°03' E 016°05'3 5.7
2018-Jun-21 18:29N 68°05' E 016°11'4 8.4
2018-Jun-21 18:00N 68°06' E 016°21'3 5.2
2018-Jun-21 17:30N 68°06' E 016°14'5 9.2
2018-Jun-21 17:00N 68°03' E 016°05'3 4.8
2018-Jun-21 16:28N 68°05' E 016°10'4 9.2
2018-Jun-21 16:00N 68°06' E 016°21'2 3.9
2018-Jun-21 15:30N 68°06' E 016°16'510.2
2018-Jun-21 14:59N 68°03' E 016°05'2 4.6
2018-Jun-21 14:30N 68°04' E 016°09'5 9.4
2018-Jun-21 14:00N 68°06' E 016°21'2 3.7
2018-Jun-21 13:30N 68°06' E 016°16'510.7
2018-Jun-21 13:00N 68°03' E 016°05'2 4.5
2018-Jun-21 12:30N 68°04' E 016°10'5 9.2
2018-Jun-21 12:00N 68°06' E 016°21'3 4.9
2018-Jun-21 11:29N 68°06' E 016°15'5 9.5
2018-Jun-21 11:00N 68°03' E 016°05'2 4.0
2018-Jun-21 10:29N 68°04' E 016°09'5 9.8
2018-Jun-21 10:00N 68°06' E 016°21'2 4.2
2018-Jun-21 09:29N 68°06' E 016°16'510.4
2018-Jun-21 09:00N 68°03' E 016°05'2 4.1
2018-Jun-21 08:30N 68°04' E 016°09'5 9.6
2018-Jun-21 08:00N 68°06' E 016°21'2 4.4
2018-Jun-21 07:30N 68°06' E 016°15'5 9.9
2018-Jun-21 07:00N 68°03' E 016°05'3 5.6
2018-Jun-21 06:30N 68°05' E 016°11'4 8.3
2018-Jun-21 06:00N 68°06' E 016°21'1 2.3
2018-Jun-21 05:30N 68°06' E 016°18'5 9.9
2018-Jun-21 05:00N 68°03' E 016°06'2 3.4
2018-Jun-21 04:30N 68°04' E 016°10'4 8.7
2018-Jun-21 04:00N 68°06' E 016°21'0 0.0
2018-Jun-21 03:30N 68°06' E 016°21'0 0.0
2018-Jun-21 03:00N 68°06' E 016°21'0 0.0
2018-Jun-21 02:30N 68°06' E 016°21'0 0.0
2018-Jun-21 02:00N 68°06' E 016°21'0 0.0
2018-Jun-21 01:30N 68°06' E 016°21'0 0.0
2018-Jun-21 01:00N 68°06' E 016°21'0 0.0
2018-Jun-21 00:30N 68°06' E 016°21'0 0.0
2018-Jun-21 00:00N 68°06' E 016°21'0 0.0
2018-Jun-20 23:30N 68°06' E 016°21'0 0.0
2018-Jun-20 23:00N 68°06' E 016°21'0 0.0
2018-Jun-20 22:30N 68°06' E 016°21'0 0.2
2018-Jun-20 21:59N 68°06' E 016°21'3 5.2
2018-Jun-20 21:30N 68°06' E 016°14'5 9.3
2018-Jun-20 21:00N 68°03' E 016°05'3 5.3
2018-Jun-20 20:30N 68°05' E 016°10'4 8.4
2018-Jun-20 20:00N 68°06' E 016°21'2 4.6
2018-Jun-20 19:30N 68°06' E 016°15'5 9.4
2018-Jun-20 18:59N 68°03' E 016°05'2 4.7
2018-Jun-20 18:30N 68°04' E 016°09'5 9.1
2018-Jun-20 18:00N 68°06' E 016°21'2 5.0
2018-Jun-20 17:29N 68°06' E 016°15'5 9.5
2018-Jun-20 17:00N 68°03' E 016°05'2 4.3
2018-Jun-20 16:30N 68°04' E 016°09'5 9.5
2018-Jun-20 16:00N 68°06' E 016°21'3 4.8
2018-Jun-20 15:29N 68°06' E 016°15'5 9.6
2018-Jun-20 15:00N 68°03' E 016°05'2 4.5
2018-Jun-20 14:29N 68°04' E 016°10'5 9.4
2018-Jun-20 14:00N 68°06' E 016°21'2 3.9
2018-Jun-20 13:30N 68°06' E 016°16'510.1
2018-Jun-20 13:00N 68°03' E 016°05'2 4.2
2018-Jun-20 12:30N 68°04' E 016°09'5 9.6
2018-Jun-20 12:00N 68°06' E 016°21'2 4.6
2018-Jun-20 11:29N 68°06' E 016°15'5 9.9
2018-Jun-20 11:00N 68°03' E 016°05'2 3.6
2018-Jun-20 10:30N 68°04' E 016°08'510.0
2018-Jun-20 09:59N 68°06' E 016°21'2 4.4
2018-Jun-20 09:30N 68°06' E 016°16'510.1
2018-Jun-20 09:00N 68°03' E 016°05'2 4.6
2018-Jun-20 08:30N 68°04' E 016°10'5 9.0
2018-Jun-20 08:00N 68°06' E 016°21'2 4.9
2018-Jun-20 07:30N 68°06' E 016°15'5 9.4
2018-Jun-20 07:00N 68°03' E 016°05'2 4.8
2018-Jun-20 06:30N 68°04' E 016°10'4 8.9
2018-Jun-20 06:00N 68°06' E 016°21'1 2.4
2018-Jun-20 05:29N 68°06' E 016°18'510.6
2018-Jun-20 04:59N 68°03' E 016°06'2 3.7
2018-Jun-20 04:30N 68°04' E 016°10'4 8.8
2018-Jun-20 04:00N 68°06' E 016°21'0 0.0
2018-Jun-20 03:30N 68°06' E 016°21'0 0.0
2018-Jun-20 03:00N 68°06' E 016°21'0 0.0
2018-Jun-20 02:30N 68°06' E 016°21'0 0.0
2018-Jun-20 02:00N 68°06' E 016°21'0 0.0
2018-Jun-20 01:30N 68°06' E 016°21'0 0.0
2018-Jun-20 01:00N 68°06' E 016°21'0 0.0
2018-Jun-20 00:30N 68°06' E 016°21'0 0.0
2018-Jun-20 00:00N 68°06' E 016°21'0 0.0
2018-Jun-19 23:30N 68°06' E 016°21'0 0.0
2018-Jun-19 23:00N 68°06' E 016°21'0 0.0
2018-Jun-19 22:29N 68°06' E 016°21'0 0.0
2018-Jun-19 22:00N 68°06' E 016°21'3 5.3
2018-Jun-19 21:30N 68°06' E 016°14'4 8.9
2018-Jun-19 21:00N 68°03' E 016°05'3 5.3
2018-Jun-19 20:30N 68°05' E 016°10'4 8.5
2018-Jun-19 20:00N 68°06' E 016°21'4 7.1
2018-Jun-19 19:29N 68°05' E 016°12'3 6.8
2018-Jun-19 19:00N 68°03' E 016°05'3 5.3
2018-Jun-19 18:30N 68°05' E 016°11'4 8.4
2018-Jun-19 18:00N 68°06' E 016°21'3 5.5
2018-Jun-19 17:30N 68°06' E 016°14'4 8.9
2018-Jun-19 17:00N 68°03' E 016°05'2 4.8
2018-Jun-19 16:30N 68°04' E 016°10'4 9.0
2018-Jun-19 16:00N 68°06' E 016°21'3 5.3
2018-Jun-19 15:30N 68°06' E 016°14'4 8.9
2018-Jun-19 15:00N 68°03' E 016°05'3 6.6
2018-Jun-19 14:30N 68°05' E 016°12'4 6.8
2018-Jun-19 13:58N 68°06' E 016°21'2 5.2
2018-Jun-19 13:30N 68°06' E 016°15'5 9.3
2018-Jun-19 13:00N 68°03' E 016°05'3 5.3
2018-Jun-19 12:30N 68°05' E 016°10'4 8.5
2018-Jun-19 12:00N 68°06' E 016°21'3 5.2
2018-Jun-19 11:30N 68°06' E 016°14'5 9.2
2018-Jun-19 11:00N 68°03' E 016°05'3 5.1
2018-Jun-19 10:30N 68°04' E 016°10'4 8.8
2018-Jun-19 10:00N 68°06' E 016°21'3 5.2
2018-Jun-19 09:30N 68°06' E 016°14'4 9.1
2018-Jun-19 09:00N 68°03' E 016°05'3 5.1
2018-Jun-19 08:30N 68°04' E 016°10'4 8.7
2018-Jun-19 08:00N 68°06' E 016°21'3 5.2
2018-Jun-19 07:30N 68°06' E 016°14'5 8.9
2018-Jun-19 07:00N 68°03' E 016°05'3 5.2
2018-Jun-19 06:30N 68°04' E 016°10'4 8.6
2018-Jun-19 06:00N 68°06' E 016°21'2 2.9
2018-Jun-19 05:29N 68°06' E 016°17'510.0
2018-Jun-19 05:00N 68°03' E 016°06'2 3.8
2018-Jun-19 04:30N 68°04' E 016°10'4 8.6
2018-Jun-19 04:00N 68°06' E 016°21'0 0.0
2018-Jun-19 03:30N 68°06' E 016°21'0 0.0
2018-Jun-19 03:00N 68°06' E 016°21'0 0.0
2018-Jun-19 02:29N 68°06' E 016°21'0 0.0
2018-Jun-19 02:00N 68°06' E 016°21'0 0.0
2018-Jun-19 01:29N 68°06' E 016°21'0 0.0
2018-Jun-19 01:00N 68°06' E 016°21'0 0.0
2018-Jun-19 00:30N 68°06' E 016°21'0 0.0
2018-Jun-19 00:00N 68°06' E 016°21'0 0.0
2018-Jun-18 23:29N 68°06' E 016°21'0 0.0
2018-Jun-18 23:00N 68°06' E 016°21'0 0.0
2018-Jun-18 22:30N 68°06' E 016°21'0 0.0
2018-Jun-18 21:58N 68°06' E 016°21'3 5.5
2018-Jun-18 21:30N 68°06' E 016°14'4 9.0
2018-Jun-18 21:00N 68°03' E 016°05'3 5.1
2018-Jun-18 20:30N 68°04' E 016°10'4 8.8
2018-Jun-18 20:00N 68°06' E 016°21'3 5.0
2018-Jun-18 19:30N 68°06' E 016°15'5 9.1
2018-Jun-18 19:00N 68°03' E 016°05'3 6.4
2018-Jun-18 18:29N 68°05' E 016°12'4 7.5
2018-Jun-18 18:00N 68°06' E 016°21'3 6.3
2018-Jun-18 17:29N 68°05' E 016°13'4 7.9
2018-Jun-18 17:00N 68°03' E 016°05'3 5.5
2018-Jun-18 16:30N 68°05' E 016°11'4 8.0
2018-Jun-18 15:59N 68°06' E 016°21'3 6.5
2018-Jun-18 15:30N 68°05' E 016°13'4 8.1
2018-Jun-18 15:00N 68°03' E 016°05'3 5.0
2018-Jun-18 14:29N 68°05' E 016°10'4 8.7
2018-Jun-18 14:00N 68°06' E 016°21'3 5.3
2018-Jun-18 13:30N 68°06' E 016°14'5 8.7
2018-Jun-18 12:59N 68°03' E 016°05'3 6.1
2018-Jun-18 12:28N 68°05' E 016°11'4 8.0
2018-Jun-18 11:59N 68°06' E 016°21'3 5.4
2018-Jun-18 11:30N 68°06' E 016°14'4 8.8
2018-Jun-18 11:00N 68°03' E 016°05'3 5.9
2018-Jun-18 10:30N 68°05' E 016°11'4 8.0
2018-Jun-18 10:00N 68°06' E 016°21'3 5.9
2018-Jun-18 09:30N 68°06' E 016°14'4 7.9
2018-Jun-18 08:59N 68°03' E 016°05'3 5.7
2018-Jun-18 08:30N 68°05' E 016°10'4 8.6
2018-Jun-18 08:00N 68°06' E 016°21'3 5.0
2018-Jun-18 07:30N 68°06' E 016°15'5 9.3
2018-Jun-18 07:00N 68°03' E 016°05'2 4.9
2018-Jun-18 06:30N 68°05' E 016°10'4 8.8
2018-Jun-18 06:00N 68°06' E 016°21'1 2.5
2018-Jun-18 05:30N 68°06' E 016°18'5 9.3
2018-Jun-18 05:00N 68°04' E 016°07'1 2.7
2018-Jun-18 04:30N 68°04' E 016°10'4 8.9
2018-Jun-18 04:00N 68°06' E 016°21'0 0.0
2018-Jun-18 03:30N 68°06' E 016°21'0 0.0
2018-Jun-18 03:00N 68°06' E 016°21'0 0.0
2018-Jun-18 02:30N 68°06' E 016°21'0 0.0
2018-Jun-18 02:00N 68°06' E 016°21'0 0.0
2018-Jun-18 01:30N 68°06' E 016°21'0 0.0
2018-Jun-18 01:00N 68°06' E 016°21'0 0.0
2018-Jun-18 00:30N 68°06' E 016°21'0 0.0
2018-Jun-18 00:00N 68°06' E 016°21'0 0.0
2018-Jun-17 23:30N 68°06' E 016°21'0 0.0
2018-Jun-17 23:00N 68°06' E 016°21'0 0.0
2018-Jun-17 22:30N 68°06' E 016°21'0 0.0
2018-Jun-17 22:00N 68°06' E 016°21'2 4.9
2018-Jun-17 21:30N 68°06' E 016°15'5 8.9
2018-Jun-17 20:59N 68°03' E 016°05'3 5.3
2018-Jun-17 20:30N 68°04' E 016°10'4 8.5
2018-Jun-17 20:00N 68°06' E 016°21'3 5.7
2018-Jun-17 19:30N 68°05' E 016°14'4 8.4
2018-Jun-17 19:00N 68°03' E 016°05'3 6.2
2018-Jun-17 18:30N 68°05' E 016°11'4 7.8
2018-Jun-17 18:00N 68°06' E 016°21'3 6.7
2018-Jun-17 17:30N 68°05' E 016°12'4 7.2
2018-Jun-17 17:00N 68°03' E 016°05'3 5.3
2018-Jun-17 16:30N 68°05' E 016°10'4 8.4
2018-Jun-17 16:00N 68°06' E 016°21'3 5.4
2018-Jun-17 15:30N 68°06' E 016°14'4 8.8
2018-Jun-17 15:00N 68°03' E 016°05'3 6.1
2018-Jun-17 14:30N 68°05' E 016°11'4 7.8
2018-Jun-17 14:00N 68°06' E 016°21'3 5.5
2018-Jun-17 13:30N 68°06' E 016°14'4 8.7
2018-Jun-17 13:00N 68°03' E 016°05'3 5.2
2018-Jun-17 12:30N 68°05' E 016°10'4 8.6
2018-Jun-17 12:00N 68°06' E 016°21'3 5.8
2018-Jun-17 11:30N 68°06' E 016°14'4 8.2
2018-Jun-17 11:00N 68°03' E 016°05'2 4.9
2018-Jun-17 10:30N 68°04' E 016°10'4 8.6
2018-Jun-17 09:59N 68°06' E 016°21'3 5.2
2018-Jun-17 09:30N 68°06' E 016°15'5 9.3
2018-Jun-17 09:00N 68°03' E 016°05'2 5.0
2018-Jun-17 08:30N 68°04' E 016°10'4 8.7
2018-Jun-17 08:00N 68°06' E 016°21'3 5.4
2018-Jun-17 07:30N 68°06' E 016°14'4 8.5
2018-Jun-17 06:59N 68°03' E 016°05'3 5.2
2018-Jun-17 06:30N 68°05' E 016°10'4 8.8
2018-Jun-17 06:00N 68°06' E 016°21'1 2.7
2018-Jun-17 05:30N 68°06' E 016°18'5 9.3
2018-Jun-17 04:58N 68°03' E 016°06'2 4.0
2018-Jun-17 04:30N 68°05' E 016°10'4 8.5
2018-Jun-17 04:00N 68°06' E 016°21'0 0.0
2018-Jun-17 03:30N 68°06' E 016°21'0 0.0
2018-Jun-17 03:00N 68°06' E 016°21'0 0.0
2018-Jun-17 02:30N 68°06' E 016°21'0 0.0
2018-Jun-17 02:00N 68°06' E 016°21'0 0.0
2018-Jun-17 01:30N 68°06' E 016°21'0 0.0
2018-Jun-17 01:00N 68°06' E 016°21'0 0.0
2018-Jun-17 00:30N 68°06' E 016°21'0 0.0
2018-Jun-17 00:00N 68°06' E 016°21'0 0.0
2018-Jun-16 23:29N 68°06' E 016°21'0 0.0
2018-Jun-16 23:00N 68°06' E 016°21'0 0.0
2018-Jun-16 22:30N 68°06' E 016°21'0 0.0
2018-Jun-16 21:59N 68°06' E 016°21'2 4.0
2018-Jun-16 21:30N 68°06' E 016°16'510.5
2018-Jun-16 21:00N 68°03' E 016°05'2 4.9
2018-Jun-16 20:30N 68°04' E 016°10'4 8.5
2018-Jun-16 19:59N 68°06' E 016°21'3 5.3
2018-Jun-16 19:29N 68°06' E 016°14'4 9.0
2018-Jun-16 19:00N 68°03' E 016°05'3 5.7
2018-Jun-16 18:30N 68°05' E 016°11'4 8.2
2018-Jun-16 18:00N 68°06' E 016°21'2 4.8
2018-Jun-16 17:30N 68°06' E 016°15'5 9.5
2018-Jun-16 17:00N 68°03' E 016°05'2 4.2
2018-Jun-16 16:30N 68°04' E 016°09'5 9.5
2018-Jun-16 16:00N 68°06' E 016°21'2 4.8
2018-Jun-16 15:29N 68°06' E 016°15'5 9.7
2018-Jun-16 15:00N 68°03' E 016°05'3 5.1
2018-Jun-16 14:29N 68°05' E 016°10'4 8.7
2018-Jun-16 14:00N 68°06' E 016°21'2 4.7
2018-Jun-16 13:30N 68°06' E 016°15'5 9.4
2018-Jun-16 12:59N 68°03' E 016°05'3 5.6
2018-Jun-16 12:29N 68°05' E 016°10'4 8.5
2018-Jun-16 12:00N 68°06' E 016°21'3 5.3
2018-Jun-16 11:30N 68°06' E 016°14'5 9.2
2018-Jun-16 11:00N 68°03' E 016°05'3 5.3
2018-Jun-16 10:30N 68°05' E 016°10'4 8.4
2018-Jun-16 10:00N 68°06' E 016°21'3 5.5
2018-Jun-16 09:30N 68°06' E 016°14'4 8.8
2018-Jun-16 09:00N 68°03' E 016°05'3 5.4
2018-Jun-16 08:30N 68°05' E 016°10'4 8.6
2018-Jun-16 08:00N 68°06' E 016°21'2 4.9
2018-Jun-16 07:30N 68°06' E 016°15'5 9.4
2018-Jun-16 07:00N 68°03' E 016°05'3 5.2
2018-Jun-16 06:30N 68°05' E 016°10'4 8.7
2018-Jun-16 06:00N 68°06' E 016°21'2 3.9
2018-Jun-16 05:30N 68°06' E 016°16'5 9.7
2018-Jun-16 05:00N 68°03' E 016°06'3 4.9
2018-Jun-16 04:29N 68°05' E 016°11'4 8.2
2018-Jun-16 04:00N 68°06' E 016°21'0 0.0
2018-Jun-16 03:29N 68°06' E 016°21'0 0.0
2018-Jun-16 03:00N 68°06' E 016°21'0 0.0
2018-Jun-16 02:29N 68°06' E 016°21'0 0.0
2018-Jun-16 02:00N 68°06' E 016°21'0 0.0
2018-Jun-16 01:30N 68°06' E 016°21'0 0.0
2018-Jun-16 00:59N 68°06' E 016°21'0 0.0
2018-Jun-16 00:30N 68°06' E 016°21'0 0.0
2018-Jun-16 00:00N 68°06' E 016°21'0 0.0
2018-Jun-15 23:30N 68°06' E 016°21'0 0.0
2018-Jun-15 23:00N 68°06' E 016°21'0 0.0
2018-Jun-15 22:30N 68°06' E 016°21'0 0.0
2018-Jun-15 21:59N 68°06' E 016°21'2 4.8
2018-Jun-15 21:28N 68°06' E 016°15'510.0
2018-Jun-15 21:00N 68°03' E 016°05'3 5.1
2018-Jun-15 20:30N 68°05' E 016°10'4 8.7
2018-Jun-15 20:00N 68°06' E 016°21'3 5.8
2018-Jun-15 19:30N 68°06' E 016°14'4 8.5
2018-Jun-15 18:59N 68°03' E 016°05'3 5.9
2018-Jun-15 18:29N 68°05' E 016°11'4 8.1
2018-Jun-15 18:00N 68°06' E 016°21'3 5.4
2018-Jun-15 17:30N 68°06' E 016°14'4 8.8
2018-Jun-15 17:00N 68°03' E 016°05'3 5.3
2018-Jun-15 16:29N 68°05' E 016°10'4 8.5
2018-Jun-15 15:59N 68°06' E 016°21'3 5.4
2018-Jun-15 15:30N 68°06' E 016°14'5 9.2
2018-Jun-15 15:00N 68°03' E 016°05'3 5.3
2018-Jun-15 14:30N 68°05' E 016°11'4 8.3
2018-Jun-15 14:00N 68°06' E 016°21'3 5.7
2018-Jun-15 13:30N 68°06' E 016°14'4 8.6
2018-Jun-15 13:00N 68°03' E 016°05'3 6.4
2018-Jun-15 12:30N 68°05' E 016°12'4 7.3
2018-Jun-15 12:00N 68°06' E 016°21'3 5.9
2018-Jun-15 11:30N 68°06' E 016°14'4 8.4
2018-Jun-15 11:00N 68°03' E 016°05'3 6.1
2018-Jun-15 10:29N 68°05' E 016°11'4 7.4
2018-Jun-15 09:59N 68°06' E 016°21'3 5.4
2018-Jun-15 09:30N 68°06' E 016°14'5 9.1
2018-Jun-15 09:00N 68°03' E 016°05'3 5.0
2018-Jun-15 08:29N 68°05' E 016°10'4 9.0
2018-Jun-15 08:00N 68°06' E 016°21'3 5.1
2018-Jun-15 07:30N 68°06' E 016°14'5 9.3
2018-Jun-15 07:00N 68°03' E 016°05'3 5.2
2018-Jun-15 06:30N 68°05' E 016°10'4 8.4
2018-Jun-15 06:00N 68°06' E 016°21'2 3.3
2018-Jun-15 05:29N 68°06' E 016°17'4 9.1
2018-Jun-15 05:00N 68°04' E 016°07'1 2.6
2018-Jun-15 04:30N 68°04' E 016°10'5 9.1
2018-Jun-15 04:00N 68°06' E 016°21'0 0.0
2018-Jun-15 03:29N 68°06' E 016°21'0 0.0
2018-Jun-15 03:00N 68°06' E 016°21'0 0.0
2018-Jun-15 02:30N 68°06' E 016°21'0 0.0
2018-Jun-15 02:00N 68°06' E 016°21'0 0.0
2018-Jun-15 01:29N 68°06' E 016°21'0 0.0
2018-Jun-15 01:00N 68°06' E 016°21'0 0.0
2018-Jun-15 00:30N 68°06' E 016°21'0 0.0
2018-Jun-14 23:59N 68°06' E 016°21'0 0.0
2018-Jun-14 23:30N 68°06' E 016°21'0 0.0
2018-Jun-14 22:59N 68°06' E 016°21'0 0.0
2018-Jun-14 22:29N 68°06' E 016°21'0 0.0
2018-Jun-14 22:00N 68°06' E 016°21'3 5.1
2018-Jun-14 21:30N 68°06' E 016°15'5 9.3
2018-Jun-14 21:00N 68°03' E 016°05'3 6.1
2018-Jun-14 20:29N 68°05' E 016°11'4 7.9
2018-Jun-14 20:00N 68°06' E 016°21'3 5.4
2018-Jun-14 19:30N 68°06' E 016°14'4 8.7
2018-Jun-14 19:00N 68°03' E 016°05'3 5.7
2018-Jun-14 18:30N 68°05' E 016°10'4 8.4
2018-Jun-14 18:00N 68°06' E 016°21'2 4.9
2018-Jun-14 17:30N 68°06' E 016°15'5 9.5
2018-Jun-14 17:00N 68°03' E 016°05'2 4.1
2018-Jun-14 16:30N 68°04' E 016°09'5 9.7
2018-Jun-14 16:00N 68°06' E 016°21'2 4.5
2018-Jun-14 15:30N 68°06' E 016°15'5 9.6
2018-Jun-14 14:59N 68°03' E 016°05'2 4.0
2018-Jun-14 14:30N 68°04' E 016°09'5 9.9
2018-Jun-14 14:00N 68°06' E 016°21'2 3.6
2018-Jun-14 13:30N 68°06' E 016°17'510.8
2018-Jun-14 13:00N 68°03' E 016°05'2 4.2
2018-Jun-14 12:29N 68°04' E 016°09'5 9.6
2018-Jun-14 12:00N 68°06' E 016°21'2 3.7
2018-Jun-14 11:30N 68°06' E 016°16'510.6
2018-Jun-14 11:00N 68°03' E 016°05'3 5.6
2018-Jun-14 10:30N 68°05' E 016°11'4 8.3
2018-Jun-14 10:00N 68°06' E 016°21'3 5.2
2018-Jun-14 09:29N 68°06' E 016°14'4 9.2
2018-Jun-14 09:00N 68°03' E 016°05'3 5.2
2018-Jun-14 08:29N 68°05' E 016°10'4 8.8
2018-Jun-14 08:00N 68°06' E 016°21'3 5.4
2018-Jun-14 07:30N 68°06' E 016°14'4 8.6
2018-Jun-14 07:00N 68°03' E 016°05'3 5.8
2018-Jun-14 06:30N 68°05' E 016°11'4 8.2
2018-Jun-14 06:00N 68°06' E 016°21'0 0.0
2018-Jun-14 05:29N 68°06' E 016°21'0 0.0
2018-Jun-14 05:00N 68°06' E 016°21'0 0.0
2018-Jun-14 04:29N 68°06' E 016°21'0 0.0
2018-Jun-14 04:00N 68°06' E 016°21'0 0.0
2018-Jun-14 03:29N 68°06' E 016°21'0 0.0
2018-Jun-14 02:59N 68°06' E 016°21'0 0.0
2018-Jun-14 02:30N 68°06' E 016°21'0 0.0
2018-Jun-14 01:59N 68°06' E 016°21'0 0.0
2018-Jun-14 01:30N 68°06' E 016°21'0 0.0
2018-Jun-14 01:00N 68°06' E 016°21'0 0.0
2018-Jun-14 00:30N 68°06' E 016°21'0 0.0
2018-Jun-14 00:00N 68°06' E 016°21'0 0.0
2018-Jun-13 23:30N 68°06' E 016°21'0 0.0
2018-Jun-13 23:00N 68°06' E 016°21'0 0.4
2018-Jun-13 22:30N 68°05' E 016°21'0 0.4
2018-Jun-13 21:58N 68°06' E 016°21'3 5.6
2018-Jun-13 21:30N 68°06' E 016°14'4 8.8
2018-Jun-13 21:00N 68°03' E 016°05'3 5.1
2018-Jun-13 20:30N 68°04' E 016°10'4 8.8
2018-Jun-13 20:00N 68°06' E 016°21'3 6.0
2018-Jun-13 19:30N 68°05' E 016°13'4 8.1
2018-Jun-13 19:00N 68°03' E 016°05'3 5.0
2018-Jun-13 18:30N 68°04' E 016°10'4 8.5
2018-Jun-13 17:59N 68°06' E 016°21'3 5.9
2018-Jun-13 17:30N 68°05' E 016°14'4 8.2
2018-Jun-13 16:59N 68°03' E 016°05'3 5.9
2018-Jun-13 16:30N 68°05' E 016°11'4 8.1
2018-Jun-13 16:00N 68°06' E 016°21'3 5.6
2018-Jun-13 15:29N 68°05' E 016°14'4 8.6
2018-Jun-13 15:00N 68°03' E 016°05'3 5.5
2018-Jun-13 14:30N 68°05' E 016°11'4 7.9
2018-Jun-13 13:59N 68°06' E 016°21'3 5.4
2018-Jun-13 13:30N 68°06' E 016°15'5 9.3
2018-Jun-13 13:00N 68°03' E 016°05'3 5.8
2018-Jun-13 12:30N 68°05' E 016°11'4 7.9
2018-Jun-13 12:00N 68°06' E 016°21'3 5.3
2018-Jun-13 11:30N 68°06' E 016°14'4 8.8
2018-Jun-13 11:00N 68°03' E 016°05'3 6.1
2018-Jun-13 10:30N 68°05' E 016°11'4 7.6
2018-Jun-13 09:59N 68°06' E 016°21'3 5.4
2018-Jun-13 09:29N 68°06' E 016°14'4 9.0
2018-Jun-13 09:00N 68°03' E 016°05'3 5.4
2018-Jun-13 08:30N 68°05' E 016°11'4 8.4
2018-Jun-13 08:00N 68°06' E 016°21'3 5.3
2018-Jun-13 07:30N 68°06' E 016°14'5 9.2
2018-Jun-13 07:00N 68°03' E 016°05'3 4.9
2018-Jun-13 06:29N 68°04' E 016°10'4 8.9
2018-Jun-13 06:00N 68°06' E 016°21'1 2.4
2018-Jun-13 05:30N 68°06' E 016°18'5 9.2
2018-Jun-13 05:00N 68°04' E 016°07'1 2.9
2018-Jun-13 04:30N 68°04' E 016°10'4 8.6
2018-Jun-13 04:00N 68°06' E 016°21'0 0.0
2018-Jun-13 03:30N 68°06' E 016°21'0 0.0
2018-Jun-13 03:00N 68°06' E 016°21'0 0.0
2018-Jun-13 02:30N 68°06' E 016°21'0 0.0
2018-Jun-13 01:59N 68°06' E 016°21'0 0.0
2018-Jun-13 01:29N 68°06' E 016°21'0 0.0
2018-Jun-13 01:00N 68°06' E 016°21'0 0.0
2018-Jun-13 00:29N 68°06' E 016°21'0 0.0
2018-Jun-13 00:00N 68°06' E 016°21'0 0.0
2018-Jun-12 23:30N 68°06' E 016°21'0 0.0
2018-Jun-12 23:00N 68°06' E 016°21'  

Dump ship's entire track history